createdAt,value
2022-09-10T00:02:47.802Z,100110.84
2022-09-10T00:05:51.560Z,100095.94
2022-09-10T00:08:58.729Z,100100.09
2022-09-10T00:12:01.586Z,100095.47
2022-09-10T00:15:07.795Z,100103.34
2022-09-10T00:18:12.404Z,100106.53
2022-09-10T00:21:18.624Z,100108.31
2022-09-10T00:24:22.539Z,100100.44
2022-09-10T00:27:26.052Z,100093.78
2022-09-10T00:30:28.777Z,100100.09
2022-09-10T00:33:31.195Z,100100.09
2022-09-10T00:36:39.719Z,100099.97
2022-09-10T00:39:42.528Z,100095.81
2022-09-10T00:42:48.010Z,100091.03
2022-09-10T00:45:54.736Z,100078.59
2022-09-10T00:49:01.998Z,100073.22
2022-09-10T00:52:05.318Z,100078.72
2022-09-10T00:55:09.451Z,100082.66
2022-09-10T00:58:14.218Z,100077.25
2022-09-10T01:01:19.140Z,100082.19
2022-09-10T01:04:22.107Z,100074.41
2022-09-10T01:07:29.123Z,100068.91
2022-09-10T01:10:40.615Z,100062.69
2022-09-10T01:13:50.137Z,100062.56
2022-09-10T01:17:07.010Z,100063.97
2022-09-10T01:20:35.950Z,100069.72
2022-09-10T01:23:50.620Z,100059.12
2022-09-10T01:27:27.072Z,100053.41
2022-09-10T01:30:34.871Z,100047.34
2022-09-10T01:33:49.970Z,100046.50
2022-09-10T01:36:56.041Z,100042.28
2022-09-10T01:40:00.164Z,100034.78
2022-09-10T01:43:07.141Z,100035.47
2022-09-10T01:46:21.661Z,100029.88
2022-09-10T01:49:39.651Z,100019.41
2022-09-10T01:52:49.356Z,100019.03
2022-09-10T01:56:19.545Z,100005.56
2022-09-10T01:59:54.363Z,100015.88
2022-09-10T02:03:06.863Z,100025.16
2022-09-10T02:06:13.364Z,100019.94
2022-09-10T02:09:18.583Z,100013.03
2022-09-10T02:12:23.050Z,100007.88
2022-09-10T02:15:28.708Z,99990.56
2022-09-10T02:18:35.327Z,99983.44
2022-09-10T02:21:38.257Z,100003.19
2022-09-10T02:24:44.345Z,100005.63
2022-09-10T02:27:46.940Z,100002.75
2022-09-10T02:30:49.690Z,100004.53
2022-09-10T02:33:52.352Z,100002.50
2022-09-10T02:36:57.605Z,100011.34
2022-09-10T02:40:00.339Z,100006.78
2022-09-10T02:43:04.775Z,99991.31
2022-09-10T02:46:07.455Z,99983.31
2022-09-10T02:49:11.574Z,99979.03
2022-09-10T02:52:14.422Z,99982.22
2022-09-10T02:55:18.146Z,99980.44
2022-09-10T02:58:20.862Z,99981.50
2022-09-10T03:01:24.013Z,99985.22
2022-09-10T03:04:27.094Z,99993.19
2022-09-10T03:07:30.456Z,99986.75
2022-09-10T03:10:33.177Z,99981.75
2022-09-10T03:13:36.191Z,99992.94
2022-09-10T03:16:40.170Z,99991.72
2022-09-10T03:19:43.777Z,99988.63
2022-09-10T03:22:47.457Z,99992.94
2022-09-10T03:25:50.728Z,99984.00
2022-09-10T03:28:55.560Z,99986.25
2022-09-10T03:31:58.776Z,99993.75
2022-09-10T03:35:01.271Z,99991.69
2022-09-10T03:38:03.975Z,99995.72
2022-09-10T03:41:06.971Z,99991.31
2022-09-10T03:44:10.283Z,100005.44
2022-09-10T03:47:14.196Z,100004.94
2022-09-10T03:50:17.102Z,99987.66
2022-09-10T03:53:19.856Z,99990.72
2022-09-10T03:56:22.807Z,99985.13
2022-09-10T03:59:25.341Z,99988.59
2022-09-10T04:02:30.969Z,99995.97
2022-09-10T04:05:33.819Z,99995.25
2022-09-10T04:08:36.497Z,99991.94
2022-09-10T04:11:42.393Z,99996.25
2022-09-10T04:14:46.684Z,99991.47
2022-09-10T04:17:53.153Z,99988.97
2022-09-10T04:20:56.450Z,100003.09
2022-09-10T04:24:00.658Z,100005.72
2022-09-10T04:27:03.607Z,100018.59
2022-09-10T04:30:09.587Z,100011.19
2022-09-10T04:33:12.233Z,99995.03
2022-09-10T04:36:17.163Z,100004.66
2022-09-10T04:39:19.771Z,100008.03
2022-09-10T04:42:24.430Z,100017.97
2022-09-10T04:45:27.979Z,100027.41
2022-09-10T04:48:32.804Z,100025.28
2022-09-10T04:51:35.309Z,100032.31
2022-09-10T04:54:38.856Z,100027.53
2022-09-10T04:57:42.273Z,100018.50
2022-09-10T05:00:45.991Z,100023.22
2022-09-10T05:03:49.132Z,100023.22
2022-09-10T05:06:53.212Z,100005.16
2022-09-10T05:09:55.720Z,100025.19
2022-09-10T05:12:58.567Z,100008.38
2022-09-10T05:16:01.654Z,100012.44
2022-09-10T05:19:06.452Z,100008.88
2022-09-10T05:22:09.932Z,100010.19
2022-09-10T05:25:12.704Z,100009.13
2022-09-10T05:28:16.460Z,100013.53
2022-09-10T05:31:20.130Z,100012.12
2022-09-10T05:34:22.674Z,100014.66
2022-09-10T05:37:26.936Z,100025.16
2022-09-10T05:40:30.019Z,100020.41
2022-09-10T05:43:33.308Z,100019.16
2022-09-10T05:46:35.803Z,100025.38
2022-09-10T05:49:39.316Z,100029.88
2022-09-10T05:52:41.782Z,100034.13
2022-09-10T05:55:46.009Z,100028.16
2022-09-10T05:58:49.699Z,100033.47
2022-09-10T06:01:53.311Z,100027.66
2022-09-10T06:04:56.442Z,100040.56
2022-09-10T06:07:59.154Z,100029.56
2022-09-10T06:11:07.429Z,100029.94
2022-09-10T06:14:10.812Z,100027.94
2022-09-10T06:17:13.590Z,100028.72
2022-09-10T06:20:16.631Z,100030.00
2022-09-10T06:23:19.872Z,100021.16
2022-09-10T06:26:22.981Z,100023.16
2022-09-10T06:29:29.433Z,100023.16
2022-09-10T06:32:33.031Z,100021.72
2022-09-10T06:35:37.007Z,100021.88
2022-09-10T06:38:41.219Z,100027.06
2022-09-10T06:41:49.577Z,100018.34
2022-09-10T06:45:03.561Z,100013.72
2022-09-10T06:48:37.687Z,100025.91
2022-09-10T06:51:30.639Z,100020.91
2022-09-10T06:54:33.540Z,100011.28
2022-09-10T06:57:42.086Z,100035.28
2022-09-10T07:00:47.692Z,100033.56
2022-09-10T07:03:56.315Z,100033.84
2022-09-10T07:07:00.781Z,100049.63
2022-09-10T07:10:04.026Z,100051.63
2022-09-10T07:13:07.847Z,100050.06
2022-09-10T07:16:10.479Z,100054.66
2022-09-10T07:19:15.038Z,100048.00
2022-09-10T07:22:18.283Z,100063.41
2022-09-10T07:25:23.584Z,100061.63
2022-09-10T07:28:26.587Z,100062.56
2022-09-10T07:31:31.596Z,100061.88
2022-09-10T07:34:34.529Z,100054.94
2022-09-10T07:37:39.249Z,100061.34
2022-09-10T07:40:42.993Z,100066.84
2022-09-10T07:43:45.917Z,100074.22
2022-09-10T07:46:48.659Z,100078.31
2022-09-10T07:49:52.888Z,100069.44
2022-09-10T07:52:55.405Z,100083.91
2022-09-10T07:56:01.050Z,100084.19
2022-09-10T07:59:05.102Z,100086.91
2022-09-10T08:02:13.945Z,100094.81
2022-09-10T08:05:17.302Z,100090.69
2022-09-10T08:08:20.207Z,100094.87
2022-09-10T08:11:22.970Z,100097.50
2022-09-10T08:14:25.957Z,100105.09
2022-09-10T08:17:30.752Z,100102.00
2022-09-10T08:20:33.726Z,100103.75
2022-09-10T08:23:39.544Z,100099.25
2022-09-10T08:26:42.467Z,100102.56
2022-09-10T08:29:45.427Z,100097.97
2022-09-10T08:32:48.997Z,100110.88
2022-09-10T08:35:59.632Z,100099.38
2022-09-10T08:39:06.272Z,100102.97
2022-09-10T08:42:24.556Z,100095.56
2022-09-10T08:45:32.853Z,100099.81
2022-09-10T08:48:40.896Z,100089.78
2022-09-10T08:51:57.124Z,100085.06
2022-09-10T08:55:22.763Z,100086.03
2022-09-10T08:58:45.256Z,100080.66
2022-09-10T09:02:02.222Z,100092.50
2022-09-10T09:05:14.238Z,100091.47
2022-09-10T09:08:21.833Z,100087.38
2022-09-10T09:11:46.526Z,100101.44
2022-09-10T09:15:08.663Z,100102.53
2022-09-10T09:18:42.176Z,100106.53
2022-09-10T09:21:52.294Z,100110.31
2022-09-10T09:25:00.748Z,100103.81
2022-09-10T09:28:10.261Z,100108.22
2022-09-10T09:31:17.157Z,100106.66
2022-09-10T09:34:28.049Z,100101.75
2022-09-10T09:37:31.315Z,100105.47
2022-09-10T09:41:00.528Z,100094.56
2022-09-10T09:44:19.537Z,100101.47
2022-09-10T09:47:23.208Z,100088.88
2022-09-10T09:50:25.897Z,100093.72
2022-09-10T09:53:29.840Z,100090.78
2022-09-10T09:56:39.011Z,100084.50
2022-09-10T09:59:42.021Z,100080.22
2022-09-10T10:02:44.577Z,100080.84
2022-09-10T10:05:48.484Z,100073.91
2022-09-10T10:09:00.204Z,100057.81
2022-09-10T10:12:05.809Z,100052.91
2022-09-10T10:15:38.776Z,100065.16
2022-09-10T10:18:43.252Z,100045.38
2022-09-10T10:21:47.353Z,100061.41
2022-09-10T10:24:52.606Z,100052.31
2022-09-10T10:27:55.430Z,100048.09
2022-09-10T10:31:00.690Z,100046.44
2022-09-10T10:34:09.308Z,100047.44
2022-09-10T10:37:38.161Z,100045.56
2022-09-10T10:41:14.164Z,100041.72
2022-09-10T10:44:19.766Z,100045.56
2022-09-10T10:47:28.227Z,100038.00
2022-09-10T10:50:58.593Z,100033.78
2022-09-10T10:54:23.713Z,100023.69
2022-09-10T10:57:26.417Z,100029.84
2022-09-10T11:00:44.122Z,100033.84
2022-09-10T11:03:57.336Z,100031.50
2022-09-10T11:07:09.883Z,100033.78
2022-09-10T11:10:20.740Z,100030.97
2022-09-10T11:13:31.578Z,100038.94
2022-09-10T11:16:42.076Z,100024.84
2022-09-10T11:20:27.317Z,100028.66
2022-09-10T11:23:39.497Z,100023.66
2022-09-10T11:26:54.039Z,100024.09
2022-09-10T11:30:06.891Z,100020.97
2022-09-10T11:33:23.420Z,100024.31
2022-09-10T11:37:03.608Z,100019.69
2022-09-10T11:40:23.571Z,100022.00
2022-09-10T11:43:37.967Z,100011.56
2022-09-10T11:46:59.784Z,100014.88
2022-09-10T11:50:11.391Z,100021.28
2022-09-10T11:53:16.592Z,100012.03
2022-09-10T11:56:34.630Z,100008.56
2022-09-10T11:59:49.456Z,100002.38
2022-09-10T12:03:29.584Z,100000.66
2022-09-10T12:07:09.593Z,100015.84
2022-09-10T12:10:19.216Z,100009.84
2022-09-10T12:13:22.524Z,100012.38
2022-09-10T12:16:36.482Z,100021.41
2022-09-10T12:19:48.210Z,100006.16
2022-09-10T12:22:54.836Z,100004.97
2022-09-10T12:26:17.944Z,100005.66
2022-09-10T12:29:30.384Z,100004.03
2022-09-10T12:32:33.146Z,100011.97
2022-09-10T12:35:35.617Z,100020.66
2022-09-10T12:39:09.205Z,100011.91
2022-09-10T12:42:28.475Z,100004.94
2022-09-10T12:46:03.180Z,99995.16
2022-09-10T12:49:12.223Z,99997.81
2022-09-10T12:52:25.556Z,99995.47
2022-09-10T12:55:59.497Z,99994.31
2022-09-10T12:59:38.801Z,99988.03
2022-09-10T13:02:50.390Z,99993.97
2022-09-10T13:05:56.619Z,99991.00
2022-09-10T13:08:59.172Z,99981.22
2022-09-10T13:12:14.912Z,99976.59
2022-09-10T13:15:20.773Z,99985.69
2022-09-10T13:18:26.518Z,99975.91
2022-09-10T13:21:28.843Z,99976.91
2022-09-10T13:24:35.569Z,99977.75
2022-09-10T13:27:40.292Z,99992.16
2022-09-10T13:30:43.924Z,99982.41
2022-09-10T13:33:49.300Z,99990.53
2022-09-10T13:37:24.577Z,99998.41
2022-09-10T13:40:55.937Z,99989.41
2022-09-10T13:44:13.483Z,99989.78
2022-09-10T13:47:57.333Z,99983.38
2022-09-10T13:51:11.948Z,99979.06
2022-09-10T13:54:36.054Z,99979.25
2022-09-10T13:57:42.576Z,99982.53
2022-09-10T14:01:05.201Z,99978.41
2022-09-10T14:04:44.876Z,99965.78
2022-09-10T14:07:47.950Z,99968.78
2022-09-10T14:10:56.127Z,99963.87
2022-09-10T14:14:17.629Z,99977.47
2022-09-10T14:17:25.782Z,99963.34
2022-09-10T14:20:34.163Z,99959.53
2022-09-10T14:23:40.244Z,99957.97
2022-09-10T14:27:06.475Z,99964.78
2022-09-10T14:30:21.472Z,99964.59
2022-09-10T14:33:33.489Z,99959.41
2022-09-10T14:36:36.245Z,99964.13
2022-09-10T14:39:44.430Z,99966.62
2022-09-10T14:42:49.788Z,99953.47
2022-09-10T14:45:52.267Z,99960.97
2022-09-10T14:49:02.431Z,99974.91
2022-09-10T14:52:05.995Z,99958.25
2022-09-10T14:55:08.661Z,99964.28
2022-09-10T14:58:11.571Z,99952.84
2022-09-10T15:01:14.916Z,99954.22
2022-09-10T15:04:22.984Z,99961.09
2022-09-10T15:07:27.452Z,99964.50
2022-09-10T15:10:30.295Z,99961.94
2022-09-10T15:13:37.232Z,99969.47
2022-09-10T15:16:39.749Z,99963.66
2022-09-10T15:19:42.476Z,99971.72
2022-09-10T15:22:45.106Z,99968.50
2022-09-10T15:25:50.575Z,99969.63
2022-09-10T15:28:53.039Z,99969.94
2022-09-10T15:31:59.548Z,99980.31
2022-09-10T15:35:03.295Z,99978.78
2022-09-10T15:38:06.108Z,99983.69
2022-09-10T15:41:12.630Z,99988.94
2022-09-10T15:44:15.748Z,99989.09
2022-09-10T15:47:18.230Z,99988.94
2022-09-10T15:50:21.158Z,99990.03
2022-09-10T15:53:23.545Z,99999.75
2022-09-10T15:56:26.620Z,100006.75
2022-09-10T15:59:29.203Z,100014.34
2022-09-10T16:02:32.399Z,100025.19
2022-09-10T16:05:35.282Z,100019.47
2022-09-10T16:08:37.793Z,100022.28
2022-09-10T16:11:42.410Z,100026.03
2022-09-10T16:14:45.296Z,100028.28
2022-09-10T16:17:48.557Z,100029.03
2022-09-10T16:20:51.191Z,100039.44
2022-09-10T16:23:56.751Z,100035.97
2022-09-10T16:26:59.524Z,100040.47
2022-09-10T16:30:02.295Z,100046.28
2022-09-10T16:33:06.204Z,100039.03
2022-09-10T16:36:10.819Z,100045.81
2022-09-10T16:39:15.966Z,100045.03
2022-09-10T16:42:19.141Z,100050.13
2022-09-10T16:45:21.651Z,100040.53
2022-09-10T16:48:24.462Z,100043.53
2022-09-10T16:51:28.795Z,100039.34
2022-09-10T16:54:31.902Z,100046.50
2022-09-10T16:57:34.614Z,100049.50
2022-09-10T17:00:38.165Z,100056.47
2022-09-10T17:03:42.361Z,100052.41
2022-09-10T17:06:48.810Z,100065.59
2022-09-10T17:09:51.371Z,100069.38
2022-09-10T17:12:54.166Z,100063.31
2022-09-10T17:16:37.487Z,100055.50
2022-09-10T17:19:40.306Z,100066.09
2022-09-10T17:22:42.860Z,100067.47
2022-09-10T17:25:45.640Z,100073.72
2022-09-10T17:28:59.180Z,100071.63
2022-09-10T17:32:02.198Z,100074.28
2022-09-10T17:35:05.160Z,100082.75
2022-09-10T17:38:08.315Z,100083.78
2022-09-10T17:41:14.596Z,100090.81
2022-09-10T17:44:18.065Z,100091.22
2022-09-10T17:47:21.748Z,100092.94
2022-09-10T17:50:24.463Z,100098.34
2022-09-10T17:53:27.029Z,100105.81
2022-09-10T17:56:30.784Z,100106.25
2022-09-10T17:59:34.186Z,100111.03
2022-09-10T18:02:37.122Z,100115.13
2022-09-10T18:05:40.593Z,100121.78
2022-09-10T18:08:43.183Z,100138.34
2022-09-10T18:11:46.061Z,100142.09
2022-09-10T18:14:48.568Z,100145.56
2022-09-10T18:17:51.376Z,100146.44
2022-09-10T18:20:53.933Z,100153.00
2022-09-10T18:24:03.181Z,100164.88
2022-09-10T18:27:05.678Z,100173.47
2022-09-10T18:30:09.114Z,100168.47
2022-09-10T18:33:11.689Z,100165.87
2022-09-10T18:36:18.103Z,100164.97
2022-09-10T18:39:22.093Z,100168.19
2022-09-10T18:42:25.201Z,100171.56
2022-09-10T18:45:28.006Z,100173.47
2022-09-10T18:48:34.510Z,100179.63
2022-09-10T18:51:37.349Z,100170.50
2022-09-10T18:54:45.937Z,100173.81
2022-09-10T18:57:48.964Z,100173.88
2022-09-10T19:00:54.355Z,100165.59
2022-09-10T19:04:03.132Z,100168.34
2022-09-10T19:07:06.774Z,100164.31
2022-09-10T19:10:09.430Z,100156.19
2022-09-10T19:13:12.308Z,100144.75
2022-09-10T19:16:15.345Z,100155.72
2022-09-10T19:19:22.194Z,100141.87
2022-09-10T19:22:24.679Z,100137.19
2022-09-10T19:25:27.365Z,100136.72
2022-09-10T19:28:33.559Z,100133.97
2022-09-10T19:31:36.393Z,100131.81
2022-09-10T19:34:39.027Z,100140.81
2022-09-10T19:37:42.111Z,100137.78
2022-09-10T19:40:44.615Z,100148.06
2022-09-10T19:43:50.852Z,100143.16
2022-09-10T19:46:53.290Z,100139.22
2022-09-10T19:49:58.151Z,100153.22
2022-09-10T19:53:00.683Z,100154.75
2022-09-10T19:56:20.120Z,100150.94
2022-09-10T19:59:23.288Z,100148.53
2022-09-10T20:02:26.251Z,100154.53
2022-09-10T20:05:30.728Z,100160.00
2022-09-10T20:08:33.952Z,100167.88
2022-09-10T20:11:37.871Z,100163.13
2022-09-10T20:14:40.367Z,100162.87
2022-09-10T20:17:43.146Z,100154.41
2022-09-10T20:20:46.692Z,100157.28
2022-09-10T20:23:52.449Z,100165.06
2022-09-10T20:26:54.855Z,100161.69
2022-09-10T20:29:57.647Z,100161.91
2022-09-10T20:33:01.420Z,100157.59
2022-09-10T20:36:10.772Z,100164.91
2022-09-10T20:39:15.814Z,100160.22
2022-09-10T20:42:18.628Z,100166.09
2022-09-10T20:45:21.071Z,100170.91
2022-09-10T20:48:25.333Z,100175.16
2022-09-10T20:51:27.743Z,100171.25
2022-09-10T20:54:30.967Z,100170.91
2022-09-10T20:57:33.631Z,100167.06
2022-09-10T21:00:36.350Z,100168.22
2022-09-10T21:03:43.233Z,100164.62
2022-09-10T21:06:45.994Z,100163.59
2022-09-10T21:09:48.443Z,100163.34
2022-09-10T21:12:51.159Z,100161.78
2022-09-10T21:15:54.009Z,100161.31
2022-09-10T21:19:09.565Z,100164.03
2022-09-10T21:22:12.607Z,100169.34
2022-09-10T21:25:15.472Z,100148.97
2022-09-10T21:28:17.936Z,100146.22
2022-09-10T21:31:20.718Z,100163.59
2022-09-10T21:34:23.654Z,100173.94
2022-09-10T21:37:26.608Z,100150.97
2022-09-10T21:40:29.036Z,100158.44
2022-09-10T21:43:33.641Z,100159.34
2022-09-10T21:46:36.298Z,100156.63
2022-09-10T21:49:39.320Z,100152.75
2022-09-10T21:52:41.783Z,100162.25
2022-09-10T21:55:44.572Z,100168.69
2022-09-10T21:58:47.438Z,100166.31
2022-09-10T22:01:50.364Z,100165.06
2022-09-10T22:04:53.273Z,100164.97
2022-09-10T22:07:55.742Z,100174.28
2022-09-10T22:11:03.936Z,100178.91
2022-09-10T22:14:26.696Z,100173.72
2022-09-10T22:17:29.605Z,100181.09
2022-09-10T22:20:33.456Z,100187.66
2022-09-10T22:23:38.351Z,100197.38
2022-09-10T22:26:43.295Z,100195.44
2022-09-10T22:29:46.065Z,100200.47
2022-09-10T22:32:48.584Z,100201.31
2022-09-10T22:35:51.846Z,100210.53
2022-09-10T22:38:57.002Z,100216.44
2022-09-10T22:41:59.709Z,100209.63
2022-09-10T22:45:02.122Z,100215.50
2022-09-10T22:48:04.951Z,100214.94
2022-09-10T22:51:12.790Z,100216.31
2022-09-10T22:54:16.591Z,100217.88
2022-09-10T22:57:19.121Z,100215.94
2022-09-10T23:00:22.184Z,100218.41
2022-09-10T23:03:24.676Z,100225.34
2022-09-10T23:06:32.440Z,100220.44
2022-09-10T23:09:35.055Z,100219.59
2022-09-10T23:12:38.634Z,100232.50
2022-09-10T23:15:41.152Z,100225.78
2022-09-10T23:18:48.552Z,100230.84
2022-09-10T23:21:53.968Z,100229.47
2022-09-10T23:24:56.752Z,100222.25
2022-09-10T23:27:59.223Z,100219.94
2022-09-10T23:31:32.468Z,100224.25
2022-09-10T23:34:34.981Z,100221.94
2022-09-10T23:37:38.295Z,100210.13
2022-09-10T23:40:41.607Z,100217.63
2022-09-10T23:43:45.449Z,100222.25
2022-09-10T23:46:48.366Z,100221.31
2022-09-10T23:49:51.106Z,100222.44
2022-09-10T23:52:53.507Z,100223.91
2022-09-10T23:55:57.359Z,100223.41
2022-09-10T23:59:00.082Z,100207.16
